sensor_id;sensor_type;location;lat;lon;timestamp;temperature;humidity
4306;DHT22;2166;49.926;8.608;2023-04-24T00:00:04;11.40;78.60
4306;DHT22;2166;49.926;8.608;2023-04-24T00:03:10;11.40;78.60
4306;DHT22;2166;49.926;8.608;2023-04-24T00:05:59;11.40;78.50
4306;DHT22;2166;49.926;8.608;2023-04-24T00:08:27;11.40;78.60
4306;DHT22;2166;49.926;8.608;2023-04-24T00:14:11;11.40;78.40
4306;DHT22;2166;49.926;8.608;2023-04-24T00:16:44;11.50;78.50
4306;DHT22;2166;49.926;8.608;2023-04-24T00:19:13;11.50;78.30
4306;DHT22;2166;49.926;8.608;2023-04-24T00:21:51;11.50;78.30
4306;DHT22;2166;49.926;8.608;2023-04-24T00:24:46;11.50;78.20
4306;DHT22;2166;49.926;8.608;2023-04-24T00:27:15;11.60;78.20
4306;DHT22;2166;49.926;8.608;2023-04-24T00:29:46;11.60;78.20
4306;DHT22;2166;49.926;8.608;2023-04-24T00:32:14;11.60;78.20
4306;DHT22;2166;49.926;8.608;2023-04-24T00:35:12;11.60;78.20
4306;DHT22;2166;49.926;8.608;2023-04-24T00:37:42;11.60;78.20
4306;DHT22;2166;49.926;8.608;2023-04-24T00:40:13;11.50;78.20
4306;DHT22;2166;49.926;8.608;2023-04-24T00:42:42;11.60;78.30
4306;DHT22;2166;49.926;8.608;2023-04-24T00:45:18;11.50;78.30
4306;DHT22;2166;49.926;8.608;2023-04-24T00:48:01;11.40;78.30
4306;DHT22;2166;49.926;8.608;2023-04-24T00:50:30;11.30;78.50
4306;DHT22;2166;49.926;8.608;2023-04-24T00:53:14;11.20;78.60
4306;DHT22;2166;49.926;8.608;2023-04-24T00:55:44;11.10;78.70
4306;DHT22;2166;49.926;8.608;2023-04-24T00:58:22;11.00;78.70
4306;DHT22;2166;49.926;8.608;2023-04-24T01:04:53;10.90;78.80
4306;DHT22;2166;49.926;8.608;2023-04-24T01:07:23;10.90;78.90
4306;DHT22;2166;49.926;8.608;2023-04-24T01:09:53;11.00;78.90
4306;DHT22;2166;49.926;8.608;2023-04-24T01:12:24;11.00;78.80
4306;DHT22;2166;49.926;8.608;2023-04-24T01:14:56;11.10;78.90
4306;DHT22;2166;49.926;8.608;2023-04-24T01:17:29;11.20;78.80
4306;DHT22;2166;49.926;8.608;2023-04-24T01:20:02;11.20;78.80
4306;DHT22;2166;49.926;8.608;2023-04-24T01:22:43;11.20;78.80
4306;DHT22;2166;49.926;8.608;2023-04-24T01:25:19;11.10;78.70
4306;DHT22;2166;49.926;8.608;2023-04-24T01:27:51;11.00;78.70
4306;DHT22;2166;49.926;8.608;2023-04-24T01:30:20;10.90;78.80
4306;DHT22;2166;49.926;8.608;2023-04-24T01:32:57;10.90;78.80
4306;DHT22;2166;49.926;8.608;2023-04-24T01:35:47;10.80;78.90
4306;DHT22;2166;49.926;8.608;2023-04-24T01:38:18;10.80;78.90
4306;DHT22;2166;49.926;8.608;2023-04-24T01:40:46;10.80;78.90
4306;DHT22;2166;49.926;8.608;2023-04-24T01:43:45;10.90;78.90
4306;DHT22;2166;49.926;8.608;2023-04-24T01:46:22;11.00;78.90
4306;DHT22;2166;49.926;8.608;2023-04-24T01:48:51;11.00;78.70
4306;DHT22;2166;49.926;8.608;2023-04-24T01:51:22;11.10;78.80
4306;DHT22;2166;49.926;8.608;2023-04-24T01:54:00;11.10;78.70
4306;DHT22;2166;49.926;8.608;2023-04-24T01:56:29;11.20;78.70
4306;DHT22;2166;49.926;8.608;2023-04-24T01:59:05;11.20;78.70
4306;DHT22;2166;49.926;8.608;2023-04-24T02:01:38;11.20;78.60
4306;DHT22;2166;49.926;8.608;2023-04-24T02:04:13;11.20;78.70
4306;DHT22;2166;49.926;8.608;2023-04-24T02:06:54;11.30;78.70
4306;DHT22;2166;49.926;8.608;2023-04-24T02:09:28;11.30;78.70
4306;DHT22;2166;49.926;8.608;2023-04-24T02:12:11;11.30;78.60
4306;DHT22;2166;49.926;8.608;2023-04-24T02:14:39;11.20;78.60
4306;DHT22;2166;49.926;8.608;2023-04-24T02:17:09;11.20;78.70
4306;DHT22;2166;49.926;8.608;2023-04-24T02:20:04;11.30;78.60
4306;DHT22;2166;49.926;8.608;2023-04-24T02:22:35;11.30;78.60
4306;DHT22;2166;49.926;8.608;2023-04-24T02:25:12;11.30;78.70
4306;DHT22;2166;49.926;8.608;2023-04-24T02:27:59;11.20;78.60
4306;DHT22;2166;49.926;8.608;2023-04-24T02:30:35;11.20;78.80
4306;DHT22;2166;49.926;8.608;2023-04-24T02:33:08;11.20;78.80
4306;DHT22;2166;49.926;8.608;2023-04-24T02:35:37;11.10;78.80
4306;DHT22;2166;49.926;8.608;2023-04-24T02:38:07;11.00;78.80
4306;DHT22;2166;49.926;8.608;2023-04-24T02:40:41;11.00;78.90
4306;DHT22;2166;49.926;8.608;2023-04-24T02:43:09;10.90;78.90
4306;DHT22;2166;49.926;8.608;2023-04-24T02:45:38;10.90;79.00
4306;DHT22;2166;49.926;8.608;2023-04-24T02:48:07;10.90;79.00
4306;DHT22;2166;49.926;8.608;2023-04-24T02:50:35;10.80;79.20
4306;DHT22;2166;49.926;8.608;2023-04-24T02:53:05;10.80;79.20
4306;DHT22;2166;49.926;8.608;2023-04-24T02:55:34;10.80;79.20
4306;DHT22;2166;49.926;8.608;2023-04-24T02:58:10;10.90;79.10
4306;DHT22;2166;49.926;8.608;2023-04-24T03:00:40;10.90;79.10
4306;DHT22;2166;49.926;8.608;2023-04-24T03:03:11;11.00;79.00
4306;DHT22;2166;49.926;8.608;2023-04-24T03:05:39;11.00;78.90
4306;DHT22;2166;49.926;8.608;2023-04-24T03:08:08;11.10;78.90
4306;DHT22;2166;49.926;8.608;2023-04-24T03:10:37;11.10;78.90
4306;DHT22;2166;49.926;8.608;2023-04-24T03:13:08;11.10;78.80
4306;DHT22;2166;49.926;8.608;2023-04-24T03:15:37;11.00;78.90
4306;DHT22;2166;49.926;8.608;2023-04-24T03:18:05;11.00;78.90
4306;DHT22;2166;49.926;8.608;2023-04-24T03:20:34;11.00;79.00
4306;DHT22;2166;49.926;8.608;2023-04-24T03:23:03;10.90;79.00
4306;DHT22;2166;49.926;8.608;2023-04-24T03:25:33;10.80;79.30
4306;DHT22;2166;49.926;8.608;2023-04-24T03:28:01;10.70;79.30
4306;DHT22;2166;49.926;8.608;2023-04-24T03:30:44;10.60;79.40
4306;DHT22;2166;49.926;8.608;2023-04-24T03:33:13;10.50;79.40
4306;DHT22;2166;49.926;8.608;2023-04-24T03:35:52;10.40;79.50
4306;DHT22;2166;49.926;8.608;2023-04-24T03:38:21;10.30;79.20
4306;DHT22;2166;49.926;8.608;2023-04-24T03:41:02;10.30;79.20
4306;DHT22;2166;49.926;8.608;2023-04-24T03:43:53;10.30;79.20
4306;DHT22;2166;49.926;8.608;2023-04-24T03:46:23;10.30;79.20
4306;DHT22;2166;49.926;8.608;2023-04-24T03:48:56;10.20;79.20
4306;DHT22;2166;49.926;8.608;2023-04-24T03:51:30;10.20;79.20
4306;DHT22;2166;49.926;8.608;2023-04-24T03:54:10;10.10;78.70
4306;DHT22;2166;49.926;8.608;2023-04-24T03:56:39;10.10;78.70
4306;DHT22;2166;49.926;8.608;2023-04-24T03:59:08;10.00;78.70
4306;DHT22;2166;49.926;8.608;2023-04-24T04:01:39;10.00;78.50
4306;DHT22;2166;49.926;8.608;2023-04-24T04:04:18;10.00;78.40
4306;DHT22;2166;49.926;8.608;2023-04-24T04:06:47;10.00;78.40
4306;DHT22;2166;49.926;8.608;2023-04-24T04:09:16;9.90;78.40
4306;DHT22;2166;49.926;8.608;2023-04-24T04:11:44;9.90;78.40
4306;DHT22;2166;49.926;8.608;2023-04-24T04:14:13;9.90;78.40
4306;DHT22;2166;49.926;8.608;2023-04-24T04:16:46;9.80;78.40
4306;DHT22;2166;49.926;8.608;2023-04-24T04:19:15;9.70;78.40
4306;DHT22;2166;49.926;8.608;2023-04-24T04:21:44;9.60;78.40
4306;DHT22;2166;49.926;8.608;2023-04-24T04:24:26;9.60;78.40
4306;DHT22;2166;49.926;8.608;2023-04-24T04:26:53;9.50;78.60
4306;DHT22;2166;49.926;8.608;2023-04-24T04:29:31;9.40;78.50
4306;DHT22;2166;49.926;8.608;2023-04-24T04:32:06;9.30;78.50
4306;DHT22;2166;49.926;8.608;2023-04-24T04:34:36;9.30;78.60
4306;DHT22;2166;49.926;8.608;2023-04-24T04:37:09;9.30;78.60
4306;DHT22;2166;49.926;8.608;2023-04-24T04:39:51;9.20;78.60
4306;DHT22;2166;49.926;8.608;2023-04-24T04:42:23;9.20;78.60
4306;DHT22;2166;49.926;8.608;2023-04-24T04:44:52;9.20;78.70
4306;DHT22;2166;49.926;8.608;2023-04-24T04:47:29;9.10;78.60
4306;DHT22;2166;49.926;8.608;2023-04-24T04:50:00;9.10;78.70
4306;DHT22;2166;49.926;8.608;2023-04-24T04:52:31;9.10;78.70
4306;DHT22;2166;49.926;8.608;2023-04-24T04:55:11;9.10;79.10
4306;DHT22;2166;49.926;8.608;2023-04-24T04:58:05;9.30;79.00
4306;DHT22;2166;49.926;8.608;2023-04-24T05:00:33;9.50;79.10
4306;DHT22;2166;49.926;8.608;2023-04-24T05:03:09;9.60;78.90
4306;DHT22;2166;49.926;8.608;2023-04-24T05:05:51;9.90;79.00
4306;DHT22;2166;49.926;8.608;2023-04-24T05:08:20;10.10;79.00
4306;DHT22;2166;49.926;8.608;2023-04-24T05:10:55;10.30;78.60
4306;DHT22;2166;49.926;8.608;2023-04-24T05:13:27;10.40;78.50
4306;DHT22;2166;49.926;8.608;2023-04-24T05:16:18;10.50;78.30
4306;DHT22;2166;49.926;8.608;2023-04-24T05:18:53;10.80;78.20
4306;DHT22;2166;49.926;8.608;2023-04-24T05:21:27;11.10;77.60
4306;DHT22;2166;49.926;8.608;2023-04-24T05:23:55;11.30;77.30
4306;DHT22;2166;49.926;8.608;2023-04-24T05:26:41;11.40;77.20
4306;DHT22;2166;49.926;8.608;2023-04-24T05:29:12;11.80;76.80
4306;DHT22;2166;49.926;8.608;2023-04-24T05:31:41;12.10;76.30
4306;DHT22;2166;49.926;8.608;2023-04-24T05:34:11;12.40;76.10
4306;DHT22;2166;49.926;8.608;2023-04-24T05:36:45;12.60;75.50
4306;DHT22;2166;49.926;8.608;2023-04-24T05:39:15;12.90;75.40
4306;DHT22;2166;49.926;8.608;2023-04-24T05:41:44;13.20;75.10
4306;DHT22;2166;49.926;8.608;2023-04-24T05:44:12;13.40;74.80
4306;DHT22;2166;49.926;8.608;2023-04-24T05:46:41;13.30;73.60
4306;DHT22;2166;49.926;8.608;2023-04-24T05:49:12;13.30;73.10
4306;DHT22;2166;49.926;8.608;2023-04-24T05:51:41;13.80;72.60
4306;DHT22;2166;49.926;8.608;2023-04-24T05:54:09;14.40;71.40
4306;DHT22;2166;49.926;8.608;2023-04-24T05:56:40;15.10;70.70
4306;DHT22;2166;49.926;8.608;2023-04-24T05:59:12;15.70;69.60
4306;DHT22;2166;49.926;8.608;2023-04-24T06:01:40;15.40;71.00
4306;DHT22;2166;49.926;8.608;2023-04-24T06:04:15;15.10;71.50
4306;DHT22;2166;49.926;8.608;2023-04-24T06:06:45;15.10;71.40
4306;DHT22;2166;49.926;8.608;2023-04-24T06:09:17;14.50;71.70
4306;DHT22;2166;49.926;8.608;2023-04-24T06:11:46;13.70;73.00
4306;DHT22;2166;49.926;8.608;2023-04-24T06:14:14;13.20;73.20
4306;DHT22;2166;49.926;8.608;2023-04-24T06:17:08;12.80;74.40
4306;DHT22;2166;49.926;8.608;2023-04-24T06:19:43;12.70;74.20
4306;DHT22;2166;49.926;8.608;2023-04-24T06:22:11;12.60;74.10
4306;DHT22;2166;49.926;8.608;2023-04-24T06:24:40;12.60;74.30
4306;DHT22;2166;49.926;8.608;2023-04-24T06:27:09;12.70;73.90
4306;DHT22;2166;49.926;8.608;2023-04-24T06:29:40;12.90;74.00
4306;DHT22;2166;49.926;8.608;2023-04-24T06:32:09;13.00;74.30
4306;DHT22;2166;49.926;8.608;2023-04-24T06:34:37;13.00;74.20
4306;DHT22;2166;49.926;8.608;2023-04-24T06:37:07;12.90;74.00
4306;DHT22;2166;49.926;8.608;2023-04-24T06:39:35;13.40;73.20
4306;DHT22;2166;49.926;8.608;2023-04-24T06:42:04;14.00;72.60
4306;DHT22;2166;49.926;8.608;2023-04-24T06:44:33;14.10;72.00
4306;DHT22;2166;49.926;8.608;2023-04-24T06:47:04;14.20;71.70
4306;DHT22;2166;49.926;8.608;2023-04-24T06:49:33;13.80;72.10
4306;DHT22;2166;49.926;8.608;2023-04-24T06:52:01;13.30;73.40
4306;DHT22;2166;49.926;8.608;2023-04-24T06:54:31;12.90;74.00
4306;DHT22;2166;49.926;8.608;2023-04-24T06:57:00;12.50;74.10
4306;DHT22;2166;49.926;8.608;2023-04-24T06:59:29;12.40;74.50
4306;DHT22;2166;49.926;8.608;2023-04-24T07:01:58;12.60;74.80
4306;DHT22;2166;49.926;8.608;2023-04-24T07:04:26;12.80;74.40
4306;DHT22;2166;49.926;8.608;2023-04-24T07:06:55;12.80;74.60
4306;DHT22;2166;49.926;8.608;2023-04-24T07:09:25;12.80;74.00
4306;DHT22;2166;49.926;8.608;2023-04-24T07:11:55;12.80;74.20
4306;DHT22;2166;49.926;8.608;2023-04-24T07:14:24;12.70;74.30
4306;DHT22;2166;49.926;8.608;2023-04-24T07:16:52;12.80;74.30
4306;DHT22;2166;49.926;8.608;2023-04-24T07:19:20;13.00;74.10
4306;DHT22;2166;49.926;8.608;2023-04-24T07:21:49;13.00;73.70
4306;DHT22;2166;49.926;8.608;2023-04-24T07:24:17;13.10;73.60
4306;DHT22;2166;49.926;8.608;2023-04-24T07:26:48;13.10;73.10
4306;DHT22;2166;49.926;8.608;2023-04-24T07:29:19;12.90;73.40
4306;DHT22;2166;49.926;8.608;2023-04-24T07:31:48;12.80;73.80
4306;DHT22;2166;49.926;8.608;2023-04-24T07:34:16;12.70;74.10
4306;DHT22;2166;49.926;8.608;2023-04-24T07:36:45;12.80;74.30
4306;DHT22;2166;49.926;8.608;2023-04-24T07:39:14;12.80;73.00
4306;DHT22;2166;49.926;8.608;2023-04-24T07:41:42;13.10;73.20
4306;DHT22;2166;49.926;8.608;2023-04-24T07:44:10;13.20;71.10
4306;DHT22;2166;49.926;8.608;2023-04-24T07:46:40;13.60;71.40
4306;DHT22;2166;49.926;8.608;2023-04-24T07:49:09;14.80;69.70
4306;DHT22;2166;49.926;8.608;2023-04-24T07:51:40;16.10;67.30
4306;DHT22;2166;49.926;8.608;2023-04-24T07:54:10;16.90;64.70
4306;DHT22;2166;49.926;8.608;2023-04-24T07:56:39;16.80;62.60
4306;DHT22;2166;49.926;8.608;2023-04-24T07:59:09;16.30;64.40
4306;DHT22;2166;49.926;8.608;2023-04-24T08:01:37;16.80;64.30
4306;DHT22;2166;49.926;8.608;2023-04-24T08:04:08;16.40;63.20
4306;DHT22;2166;49.926;8.608;2023-04-24T08:06:36;16.20;65.20
4306;DHT22;2166;49.926;8.608;2023-04-24T08:09:05;16.50;63.50
4306;DHT22;2166;49.926;8.608;2023-04-24T08:11:33;15.60;62.20
4306;DHT22;2166;49.926;8.608;2023-04-24T08:14:01;15.40;62.70
4306;DHT22;2166;49.926;8.608;2023-04-24T08:16:29;15.00;64.10
4306;DHT22;2166;49.926;8.608;2023-04-24T08:18:57;14.90;64.80
4306;DHT22;2166;49.926;8.608;2023-04-24T08:21:27;14.70;65.90
4306;DHT22;2166;49.926;8.608;2023-04-24T08:23:55;14.90;67.10
4306;DHT22;2166;49.926;8.608;2023-04-24T08:26:24;15.60;63.40
4306;DHT22;2166;49.926;8.608;2023-04-24T08:28:53;15.90;62.30
4306;DHT22;2166;49.926;8.608;2023-04-24T08:31:21;16.10;62.00
4306;DHT22;2166;49.926;8.608;2023-04-24T08:33:49;16.50;60.60
4306;DHT22;2166;49.926;8.608;2023-04-24T08:36:18;16.30;60.00
4306;DHT22;2166;49.926;8.608;2023-04-24T08:38:48;16.50;60.20
4306;DHT22;2166;49.926;8.608;2023-04-24T08:41:17;17.40;59.70
4306;DHT22;2166;49.926;8.608;2023-04-24T08:43:48;17.60;57.80
4306;DHT22;2166;49.926;8.608;2023-04-24T08:46:17;16.50;59.90
4306;DHT22;2166;49.926;8.608;2023-04-24T08:48:46;15.90;62.20
4306;DHT22;2166;49.926;8.608;2023-04-24T08:51:14;15.60;63.10
4306;DHT22;2166;49.926;8.608;2023-04-24T08:53:43;15.40;64.30
4306;DHT22;2166;49.926;8.608;2023-04-24T08:56:12;15.00;65.20
4306;DHT22;2166;49.926;8.608;2023-04-24T08:58:41;14.40;67.20
4306;DHT22;2166;49.926;8.608;2023-04-24T09:01:09;14.50;67.00
4306;DHT22;2166;49.926;8.608;2023-04-24T09:03:37;14.10;67.00
4306;DHT22;2166;49.926;8.608;2023-04-24T09:06:06;14.20;67.00
4306;DHT22;2166;49.926;8.608;2023-04-24T09:08:36;14.00;68.10
4306;DHT22;2166;49.926;8.608;2023-04-24T09:11:06;13.70;67.70
4306;DHT22;2166;49.926;8.608;2023-04-24T09:13:36;13.30;67.60
4306;DHT22;2166;49.926;8.608;2023-04-24T09:16:04;13.20;68.80
4306;DHT22;2166;49.926;8.608;2023-04-24T09:18:33;13.20;69.70
4306;DHT22;2166;49.926;8.608;2023-04-24T09:21:04;13.10;70.50
4306;DHT22;2166;49.926;8.608;2023-04-24T09:23:35;13.00;70.30
4306;DHT22;2166;49.926;8.608;2023-04-24T09:26:03;12.80;70.90
4306;DHT22;2166;49.926;8.608;2023-04-24T09:28:35;12.50;71.40
4306;DHT22;2166;49.926;8.608;2023-04-24T09:31:09;12.40;72.10
4306;DHT22;2166;49.926;8.608;2023-04-24T09:33:38;12.30;72.10
4306;DHT22;2166;49.926;8.608;2023-04-24T09:36:07;12.40;71.90
4306;DHT22;2166;49.926;8.608;2023-04-24T09:38:36;12.40;71.90
4306;DHT22;2166;49.926;8.608;2023-04-24T09:41:07;12.80;71.70
4306;DHT22;2166;49.926;8.608;2023-04-24T09:43:36;12.90;71.60
4306;DHT22;2166;49.926;8.608;2023-04-24T09:46:05;12.80;71.40
4306;DHT22;2166;49.926;8.608;2023-04-24T09:48:36;12.80;71.00
4306;DHT22;2166;49.926;8.608;2023-04-24T09:51:05;12.60;71.70
4306;DHT22;2166;49.926;8.608;2023-04-24T09:53:38;12.60;72.30
4306;DHT22;2166;49.926;8.608;2023-04-24T09:56:12;12.70;71.80
4306;DHT22;2166;49.926;8.608;2023-04-24T09:58:41;12.80;72.50
4306;DHT22;2166;49.926;8.608;2023-04-24T10:01:09;13.10;71.70
4306;DHT22;2166;49.926;8.608;2023-04-24T10:03:39;13.70;71.20
4306;DHT22;2166;49.926;8.608;2023-04-24T10:06:11;13.70;69.90
4306;DHT22;2166;49.926;8.608;2023-04-24T10:08:39;14.10;69.60
4306;DHT22;2166;49.926;8.608;2023-04-24T10:11:08;14.20;70.30
4306;DHT22;2166;49.926;8.608;2023-04-24T10:13:42;14.20;69.20
4306;DHT22;2166;49.926;8.608;2023-04-24T10:16:11;14.00;70.60
4306;DHT22;2166;49.926;8.608;2023-04-24T10:18:42;13.90;69.80
4306;DHT22;2166;49.926;8.608;2023-04-24T10:21:11;13.50;70.30
4306;DHT22;2166;49.926;8.608;2023-04-24T10:23:40;13.20;71.40
4306;DHT22;2166;49.926;8.608;2023-04-24T10:26:09;13.20;72.30
4306;DHT22;2166;49.926;8.608;2023-04-24T10:28:38;13.30;72.00
4306;DHT22;2166;49.926;8.608;2023-04-24T10:31:08;13.10;71.20
4306;DHT22;2166;49.926;8.608;2023-04-24T10:33:37;13.00;72.70
4306;DHT22;2166;49.926;8.608;2023-04-24T10:36:09;13.50;72.60
4306;DHT22;2166;49.926;8.608;2023-04-24T10:38:39;14.00;71.30
4306;DHT22;2166;49.926;8.608;2023-04-24T10:41:10;14.50;70.40
4306;DHT22;2166;49.926;8.608;2023-04-24T10:43:45;14.80;68.60
4306;DHT22;2166;49.926;8.608;2023-04-24T10:46:17;14.50;69.20
4306;DHT22;2166;49.926;8.608;2023-04-24T10:48:52;14.30;70.00
4306;DHT22;2166;49.926;8.608;2023-04-24T10:51:22;14.10;69.90
4306;DHT22;2166;49.926;8.608;2023-04-24T10:53:51;13.80;69.60
4306;DHT22;2166;49.926;8.608;2023-04-24T10:56:21;13.60;70.00
4306;DHT22;2166;49.926;8.608;2023-04-24T10:58:50;13.40;70.60
4306;DHT22;2166;49.926;8.608;2023-04-24T11:01:25;13.20;72.00
4306;DHT22;2166;49.926;8.608;2023-04-24T11:03:54;12.90;73.60
4306;DHT22;2166;49.926;8.608;2023-04-24T11:06:31;12.50;74.10
4306;DHT22;2166;49.926;8.608;2023-04-24T11:09:02;12.10;74.80
4306;DHT22;2166;49.926;8.608;2023-04-24T11:11:32;11.70;76.00
4306;DHT22;2166;49.926;8.608;2023-04-24T11:14:01;11.40;76.30
4306;DHT22;2166;49.926;8.608;2023-04-24T11:16:30;11.30;77.10
4306;DHT22;2166;49.926;8.608;2023-04-24T11:19:00;11.10;77.30
4306;DHT22;2166;49.926;8.608;2023-04-24T11:21:38;11.00;77.80
4306;DHT22;2166;49.926;8.608;2023-04-24T11:24:26;11.10;77.60
4306;DHT22;2166;49.926;8.608;2023-04-24T11:26:55;11.00;77.80
4306;DHT22;2166;49.926;8.608;2023-04-24T11:29:37;10.90;78.10
4306;DHT22;2166;49.926;8.608;2023-04-24T11:32:16;10.70;77.80
4306;DHT22;2166;49.926;8.608;2023-04-24T11:34:49;10.60;78.00
4306;DHT22;2166;49.926;8.608;2023-04-24T11:37:21;10.60;78.40
4306;DHT22;2166;49.926;8.608;2023-04-24T11:39:50;10.60;78.40
4306;DHT22;2166;49.926;8.608;2023-04-24T11:42:19;10.70;78.40
4306;DHT22;2166;49.926;8.608;2023-04-24T11:44:48;10.60;78.40
4306;DHT22;2166;49.926;8.608;2023-04-24T11:47:17;10.70;78.10
4306;DHT22;2166;49.926;8.608;2023-04-24T11:49:45;10.70;78.30
4306;DHT22;2166;49.926;8.608;2023-04-24T11:52:15;10.80;78.00
4306;DHT22;2166;49.926;8.608;2023-04-24T11:54:48;10.70;77.90
4306;DHT22;2166;49.926;8.608;2023-04-24T11:57:16;10.80;78.00
4306;DHT22;2166;49.926;8.608;2023-04-24T11:59:48;10.90;78.10
4306;DHT22;2166;49.926;8.608;2023-04-24T12:02:20;10.90;77.90
4306;DHT22;2166;49.926;8.608;2023-04-24T12:04:49;10.80;78.00
4306;DHT22;2166;49.926;8.608;2023-04-24T12:07:20;10.70;78.20
4306;DHT22;2166;49.926;8.608;2023-04-24T12:09:55;10.80;78.40
4306;DHT22;2166;49.926;8.608;2023-04-24T12:12:25;10.90;78.20
4306;DHT22;2166;49.926;8.608;2023-04-24T12:14:57;11.10;77.90
4306;DHT22;2166;49.926;8.608;2023-04-24T12:17:27;11.70;77.30
4306;DHT22;2166;49.926;8.608;2023-04-24T12:19:59;13.40;78.60
4306;DHT22;2166;49.926;8.608;2023-04-24T12:22:42;14.60;74.10
4306;DHT22;2166;49.926;8.608;2023-04-24T12:25:13;16.00;74.00
4306;DHT22;2166;49.926;8.608;2023-04-24T12:27:42;17.20;72.00
4306;DHT22;2166;49.926;8.608;2023-04-24T12:30:12;17.10;69.90
4306;DHT22;2166;49.926;8.608;2023-04-24T12:32:41;17.40;70.70
4306;DHT22;2166;49.926;8.608;2023-04-24T12:35:11;18.50;69.20
4306;DHT22;2166;49.926;8.608;2023-04-24T12:37:41;18.60;68.10
4306;DHT22;2166;49.926;8.608;2023-04-24T12:40:14;17.20;68.00
4306;DHT22;2166;49.926;8.608;2023-04-24T12:42:43;16.00;70.60
4306;DHT22;2166;49.926;8.608;2023-04-24T12:45:13;15.10;71.40
4306;DHT22;2166;49.926;8.608;2023-04-24T12:47:41;14.70;72.60
4306;DHT22;2166;49.926;8.608;2023-04-24T12:50:11;14.00;72.60
4306;DHT22;2166;49.926;8.608;2023-04-24T12:52:40;13.80;71.70
4306;DHT22;2166;49.926;8.608;2023-04-24T12:55:09;13.70;72.80
4306;DHT22;2166;49.926;8.608;2023-04-24T12:57:40;13.60;73.60
4306;DHT22;2166;49.926;8.608;2023-04-24T13:00:09;13.60;73.90
4306;DHT22;2166;49.926;8.608;2023-04-24T13:02:38;13.80;74.20
4306;DHT22;2166;49.926;8.608;2023-04-24T13:05:08;14.10;73.80
4306;DHT22;2166;49.926;8.608;2023-04-24T13:07:38;14.60;73.30
4306;DHT22;2166;49.926;8.608;2023-04-24T13:10:08;15.00;71.50
4306;DHT22;2166;49.926;8.608;2023-04-24T13:12:37;15.60;71.30
4306;DHT22;2166;49.926;8.608;2023-04-24T13:15:09;16.60;68.50
4306;DHT22;2166;49.926;8.608;2023-04-24T13:17:37;16.80;64.30
4306;DHT22;2166;49.926;8.608;2023-04-24T13:20:06;17.00;64.50
4306;DHT22;2166;49.926;8.608;2023-04-24T13:22:35;17.60;61.70
4306;DHT22;2166;49.926;8.608;2023-04-24T13:25:04;18.00;59.60
4306;DHT22;2166;49.926;8.608;2023-04-24T13:27:35;18.10;60.10
4306;DHT22;2166;49.926;8.608;2023-04-24T13:30:04;18.40;61.40
4306;DHT22;2166;49.926;8.608;2023-04-24T13:32:34;18.50;58.60
4306;DHT22;2166;49.926;8.608;2023-04-24T13:35:03;18.80;58.70
4306;DHT22;2166;49.926;8.608;2023-04-24T13:37:32;19.00;58.80
4306;DHT22;2166;49.926;8.608;2023-04-24T13:40:00;19.00;57.20
4306;DHT22;2166;49.926;8.608;2023-04-24T13:42:30;17.90;56.30
4306;DHT22;2166;49.926;8.608;2023-04-24T13:44:58;17.20;58.50
4306;DHT22;2166;49.926;8.608;2023-04-24T13:47:41;16.60;59.40
4306;DHT22;2166;49.926;8.608;2023-04-24T13:50:09;15.90;61.90
4306;DHT22;2166;49.926;8.608;2023-04-24T13:52:37;15.40;63.60
4306;DHT22;2166;49.926;8.608;2023-04-24T13:55:06;15.20;66.40
4306;DHT22;2166;49.926;8.608;2023-04-24T13:57:38;15.20;65.70
4306;DHT22;2166;49.926;8.608;2023-04-24T14:00:07;15.10;63.60
4306;DHT22;2166;49.926;8.608;2023-04-24T14:02:37;15.20;63.40
4306;DHT22;2166;49.926;8.608;2023-04-24T14:05:08;15.10;64.20
4306;DHT22;2166;49.926;8.608;2023-04-24T14:07:39;15.10;64.70
4306;DHT22;2166;49.926;8.608;2023-04-24T14:10:08;15.40;63.70
4306;DHT22;2166;49.926;8.608;2023-04-24T14:12:37;15.60;63.80
4306;DHT22;2166;49.926;8.608;2023-04-24T14:15:06;15.60;62.50
4306;DHT22;2166;49.926;8.608;2023-04-24T14:17:35;15.40;63.60
4306;DHT22;2166;49.926;8.608;2023-04-24T14:20:04;14.90;64.70
4306;DHT22;2166;49.926;8.608;2023-04-24T14:22:35;14.40;64.30
4306;DHT22;2166;49.926;8.608;2023-04-24T14:25:04;14.10;66.00
4306;DHT22;2166;49.926;8.608;2023-04-24T14:27:32;14.20;64.70
4306;DHT22;2166;49.926;8.608;2023-04-24T14:30:02;14.00;65.60
4306;DHT22;2166;49.926;8.608;2023-04-24T14:32:31;13.90;66.30
4306;DHT22;2166;49.926;8.608;2023-04-24T14:35:00;14.10;65.90
4306;DHT22;2166;49.926;8.608;2023-04-24T14:37:28;14.10;66.90
4306;DHT22;2166;49.926;8.608;2023-04-24T14:39:59;14.20;67.00
4306;DHT22;2166;49.926;8.608;2023-04-24T14:42:32;14.30;66.20
4306;DHT22;2166;49.926;8.608;2023-04-24T14:45:01;14.30;66.80
4306;DHT22;2166;49.926;8.608;2023-04-24T14:47:30;14.40;65.20
4306;DHT22;2166;49.926;8.608;2023-04-24T14:49:59;14.30;65.00
4306;DHT22;2166;49.926;8.608;2023-04-24T14:52:28;14.40;66.10
4306;DHT22;2166;49.926;8.608;2023-04-24T14:54:56;14.30;65.50
4306;DHT22;2166;49.926;8.608;2023-04-24T14:57:26;14.40;65.30
4306;DHT22;2166;49.926;8.608;2023-04-24T14:59:54;14.30;66.40
4306;DHT22;2166;49.926;8.608;2023-04-24T15:02:24;14.30;65.70
4306;DHT22;2166;49.926;8.608;2023-04-24T15:04:53;14.40;65.90
4306;DHT22;2166;49.926;8.608;2023-04-24T15:07:23;14.60;65.60
4306;DHT22;2166;49.926;8.608;2023-04-24T15:09:52;14.80;66.00
4306;DHT22;2166;49.926;8.608;2023-04-24T15:12:21;14.80;65.00
4306;DHT22;2166;49.926;8.608;2023-04-24T15:14:53;14.80;65.20
4306;DHT22;2166;49.926;8.608;2023-04-24T15:17:27;14.90;65.10
4306;DHT22;2166;49.926;8.608;2023-04-24T15:19:56;15.30;64.70
4306;DHT22;2166;49.926;8.608;2023-04-24T15:22:25;16.00;64.10
4306;DHT22;2166;49.926;8.608;2023-04-24T15:24:53;16.40;60.80
4306;DHT22;2166;49.926;8.608;2023-04-24T15:27:22;16.90;60.00
4306;DHT22;2166;49.926;8.608;2023-04-24T15:29:51;17.20;60.20
4306;DHT22;2166;49.926;8.608;2023-04-24T15:32:21;17.50;57.40
4306;DHT22;2166;49.926;8.608;2023-04-24T15:34:51;17.50;57.80
4306;DHT22;2166;49.926;8.608;2023-04-24T15:37:34;17.00;57.20
4306;DHT22;2166;49.926;8.608;2023-04-24T15:40:02;16.40;59.00
4306;DHT22;2166;49.926;8.608;2023-04-24T15:42:32;16.00;60.80
4306;DHT22;2166;49.926;8.608;2023-04-24T15:45:00;15.90;61.30
4306;DHT22;2166;49.926;8.608;2023-04-24T15:47:31;16.10;61.00
4306;DHT22;2166;49.926;8.608;2023-04-24T15:50:00;16.10;61.80
4306;DHT22;2166;49.926;8.608;2023-04-24T15:52:28;16.60;61.70
4306;DHT22;2166;49.926;8.608;2023-04-24T15:54:56;16.80;59.70
4306;DHT22;2166;49.926;8.608;2023-04-24T15:57:24;16.50;61.60
4306;DHT22;2166;49.926;8.608;2023-04-24T15:59:53;16.30;60.80
4306;DHT22;2166;49.926;8.608;2023-04-24T16:02:22;16.10;60.90
4306;DHT22;2166;49.926;8.608;2023-04-24T16:04:52;15.90;61.60
4306;DHT22;2166;49.926;8.608;2023-04-24T16:07:21;15.50;61.20
4306;DHT22;2166;49.926;8.608;2023-04-24T16:09:50;15.30;62.70
4306;DHT22;2166;49.926;8.608;2023-04-24T16:12:18;15.40;64.00
4306;DHT22;2166;49.926;8.608;2023-04-24T16:14:46;15.40;64.00
4306;DHT22;2166;49.926;8.608;2023-04-24T16:17:14;15.40;64.40
4306;DHT22;2166;49.926;8.608;2023-04-24T16:19:42;15.20;64.30
4306;DHT22;2166;49.926;8.608;2023-04-24T16:22:12;15.10;65.00
4306;DHT22;2166;49.926;8.608;2023-04-24T16:24:40;14.80;65.40
4306;DHT22;2166;49.926;8.608;2023-04-24T16:27:09;14.60;66.70
4306;DHT22;2166;49.926;8.608;2023-04-24T16:29:38;14.50;67.60
4306;DHT22;2166;49.926;8.608;2023-04-24T16:32:06;14.30;67.00
4306;DHT22;2166;49.926;8.608;2023-04-24T16:34:35;14.10;68.80